Dumas, Moore County Airport (KDUX)

NameMoore County Airport
CityDumas
CountryUnited States
ICAOKDUX
IATA
Altitude1129 m
CoordinatesGoogle Map
Live Air TrafficLiveATC.net
METARKDUX 121255Z AUTO 25007KT 10SM CLR M07/M10 A2993 RMK AO2 T10661101
2018-12-12 12:55:00 Wind: West-Southwest (250°) 3.6 m/s - Visibility: 16093.4 m - Temperature: -7 °C - Dew point: -10 °C - Humidity: 79.4% - Pressure: 1013.55 hPa
Statistics

The table below shows the detailed information of all flights to/from Dumas, Moore County Airport (KDUX).